sensor_id;sensor_type;location;lat;lon;timestamp;pressure;altitude;pressure_sealevel;temperature
10598;BMP180;5346;48.766;8.674;2022-07-29T00:00:30;94099.00;;;16.90
10598;BMP180;5346;48.766;8.674;2022-07-29T00:03:07;94092.00;;;17.00
10598;BMP180;5346;48.766;8.674;2022-07-29T00:05:42;94090.00;;;16.90
10598;BMP180;5346;48.766;8.674;2022-07-29T00:08:10;94091.00;;;16.90
10598;BMP180;5346;48.766;8.674;2022-07-29T00:10:39;94096.00;;;16.90
10598;BMP180;5346;48.766;8.674;2022-07-29T00:13:19;94085.00;;;16.90
10598;BMP180;5346;48.766;8.674;2022-07-29T00:16:00;94092.00;;;16.80
10598;BMP180;5346;48.766;8.674;2022-07-29T00:18:36;94084.00;;;16.80
10598;BMP180;5346;48.766;8.674;2022-07-29T00:21:04;94085.00;;;16.90
10598;BMP180;5346;48.766;8.674;2022-07-29T00:23:31;94084.00;;;16.90
10598;BMP180;5346;48.766;8.674;2022-07-29T00:26:07;94081.00;;;17.00
10598;BMP180;5346;48.766;8.674;2022-07-29T00:28:34;94083.00;;;17.00
10598;BMP180;5346;48.766;8.674;2022-07-29T00:31:02;94074.00;;;17.10
10598;BMP180;5346;48.766;8.674;2022-07-29T00:33:36;94073.00;;;17.00
10598;BMP180;5346;48.766;8.674;2022-07-29T00:36:04;94077.00;;;17.10
10598;BMP180;5346;48.766;8.674;2022-07-29T00:38:32;94072.00;;;17.20
10598;BMP180;5346;48.766;8.674;2022-07-29T00:41:06;94064.00;;;17.20
10598;BMP180;5346;48.766;8.674;2022-07-29T00:43:34;94061.00;;;17.20
10598;BMP180;5346;48.766;8.674;2022-07-29T00:46:01;94051.00;;;17.10
10598;BMP180;5346;48.766;8.674;2022-07-29T00:48:35;94058.00;;;17.20
10598;BMP180;5346;48.766;8.674;2022-07-29T00:51:05;94055.00;;;17.00
10598;BMP180;5346;48.766;8.674;2022-07-29T00:53:32;94050.00;;;17.00
10598;BMP180;5346;48.766;8.674;2022-07-29T00:56:07;94041.00;;;17.10
10598;BMP180;5346;48.766;8.674;2022-07-29T00:58:35;94043.00;;;17.20
10598;BMP180;5346;48.766;8.674;2022-07-29T01:01:03;94044.00;;;17.10
10598;BMP180;5346;48.766;8.674;2022-07-29T01:03:37;94042.00;;;17.10
10598;BMP180;5346;48.766;8.674;2022-07-29T01:06:05;94037.00;;;17.10
10598;BMP180;5346;48.766;8.674;2022-07-29T01:08:33;94038.00;;;17.10
10598;BMP180;5346;48.766;8.674;2022-07-29T01:11:08;94038.00;;;17.20
10598;BMP180;5346;48.766;8.674;2022-07-29T01:13:44;94047.00;;;17.10
10598;BMP180;5346;48.766;8.674;2022-07-29T01:16:35;94041.00;;;17.10
10598;BMP180;5346;48.766;8.674;2022-07-29T01:19:45;94041.00;;;17.10
10598;BMP180;5346;48.766;8.674;2022-07-29T01:23:28;94033.00;;;16.90
10598;BMP180;5346;48.766;8.674;2022-07-29T01:26:09;94024.00;;;16.90
10598;BMP180;5346;48.766;8.674;2022-07-29T01:31:38;94033.00;;;16.90
10598;BMP180;5346;48.766;8.674;2022-07-29T01:34:48;94030.00;;;16.90
10598;BMP180;5346;48.766;8.674;2022-07-29T01:37:36;94030.00;;;17.00
10598;BMP180;5346;48.766;8.674;2022-07-29T01:40:29;94029.00;;;16.90
10598;BMP180;5346;48.766;8.674;2022-07-29T01:43:12;94031.00;;;17.10
10598;BMP180;5346;48.766;8.674;2022-07-29T01:45:57;94030.00;;;17.10
10598;BMP180;5346;48.766;8.674;2022-07-29T01:48:39;94031.00;;;17.10
10598;BMP180;5346;48.766;8.674;2022-07-29T01:51:19;94019.00;;;17.10
10598;BMP180;5346;48.766;8.674;2022-07-29T01:57:00;94023.00;;;17.00
10598;BMP180;5346;48.766;8.674;2022-07-29T01:59:29;94021.00;;;16.90
10598;BMP180;5346;48.766;8.674;2022-07-29T02:01:58;94023.00;;;16.90
10598;BMP180;5346;48.766;8.674;2022-07-29T02:04:34;94014.00;;;17.00
10598;BMP180;5346;48.766;8.674;2022-07-29T02:07:05;94018.00;;;17.00
10598;BMP180;5346;48.766;8.674;2022-07-29T02:09:41;94026.00;;;17.10
10598;BMP180;5346;48.766;8.674;2022-07-29T02:12:10;94015.00;;;17.10
10598;BMP180;5346;48.766;8.674;2022-07-29T02:15:04;94027.00;;;17.10
10598;BMP180;5346;48.766;8.674;2022-07-29T02:17:49;94017.00;;;17.10
10598;BMP180;5346;48.766;8.674;2022-07-29T02:20:25;94021.00;;;17.10
10598;BMP180;5346;48.766;8.674;2022-07-29T02:22:58;94026.00;;;17.00
10598;BMP180;5346;48.766;8.674;2022-07-29T02:25:33;94021.00;;;17.00
10598;BMP180;5346;48.766;8.674;2022-07-29T02:28:05;94018.00;;;17.00
10598;BMP180;5346;48.766;8.674;2022-07-29T02:30:42;94018.00;;;17.20
10598;BMP180;5346;48.766;8.674;2022-07-29T02:33:17;94015.00;;;17.00
10598;BMP180;5346;48.766;8.674;2022-07-29T02:35:52;94015.00;;;17.10
10598;BMP180;5346;48.766;8.674;2022-07-29T02:38:22;94009.00;;;17.10
10598;BMP180;5346;48.766;8.674;2022-07-29T02:41:33;94004.00;;;17.00
10598;BMP180;5346;48.766;8.674;2022-07-29T02:44:13;94007.00;;;17.10
10598;BMP180;5346;48.766;8.674;2022-07-29T02:50:06;94010.00;;;17.00
10598;BMP180;5346;48.766;8.674;2022-07-29T02:55:59;94014.00;;;17.00
10598;BMP180;5346;48.766;8.674;2022-07-29T02:58:38;94009.00;;;17.10
10598;BMP180;5346;48.766;8.674;2022-07-29T03:01:19;94009.00;;;17.10
10598;BMP180;5346;48.766;8.674;2022-07-29T03:03:54;94005.00;;;17.00
10598;BMP180;5346;48.766;8.674;2022-07-29T03:06:24;94006.00;;;17.00
10598;BMP180;5346;48.766;8.674;2022-07-29T03:09:07;94004.00;;;17.00
10598;BMP180;5346;48.766;8.674;2022-07-29T03:11:42;94011.00;;;17.00
10598;BMP180;5346;48.766;8.674;2022-07-29T03:14:26;94012.00;;;17.00
10598;BMP180;5346;48.766;8.674;2022-07-29T03:17:01;94011.00;;;17.00
10598;BMP180;5346;48.766;8.674;2022-07-29T03:19:29;94010.00;;;16.90
10598;BMP180;5346;48.766;8.674;2022-07-29T03:21:58;94010.00;;;16.90
10598;BMP180;5346;48.766;8.674;2022-07-29T03:24:35;94017.00;;;16.70
10598;BMP180;5346;48.766;8.674;2022-07-29T03:27:04;94016.00;;;16.70
10598;BMP180;5346;48.766;8.674;2022-07-29T03:29:33;94014.00;;;16.70
10598;BMP180;5346;48.766;8.674;2022-07-29T03:32:09;94010.00;;;16.60
10598;BMP180;5346;48.766;8.674;2022-07-29T03:34:41;94006.00;;;16.70
10598;BMP180;5346;48.766;8.674;2022-07-29T03:37:17;94011.00;;;16.60
10598;BMP180;5346;48.766;8.674;2022-07-29T03:39:46;94015.00;;;16.40
10598;BMP180;5346;48.766;8.674;2022-07-29T03:42:16;94013.00;;;16.50
10598;BMP180;5346;48.766;8.674;2022-07-29T03:44:56;94007.00;;;16.30
10598;BMP180;5346;48.766;8.674;2022-07-29T03:47:27;94008.00;;;16.30
10598;BMP180;5346;48.766;8.674;2022-07-29T03:50:18;94003.00;;;16.20
10598;BMP180;5346;48.766;8.674;2022-07-29T03:52:48;94003.00;;;16.10
10598;BMP180;5346;48.766;8.674;2022-07-29T03:55:24;94006.00;;;16.10
10598;BMP180;5346;48.766;8.674;2022-07-29T03:57:53;94006.00;;;16.10
10598;BMP180;5346;48.766;8.674;2022-07-29T04:00:24;94003.00;;;16.10
10598;BMP180;5346;48.766;8.674;2022-07-29T04:03:00;94008.00;;;16.10
10598;BMP180;5346;48.766;8.674;2022-07-29T04:05:28;93999.00;;;16.10
10598;BMP180;5346;48.766;8.674;2022-07-29T04:07:57;93999.00;;;16.20
10598;BMP180;5346;48.766;8.674;2022-07-29T04:10:33;94005.00;;;16.10
10598;BMP180;5346;48.766;8.674;2022-07-29T04:13:02;94003.00;;;16.10
10598;BMP180;5346;48.766;8.674;2022-07-29T04:15:50;94010.00;;;16.00
10598;BMP180;5346;48.766;8.674;2022-07-29T04:18:19;94008.00;;;15.90
10598;BMP180;5346;48.766;8.674;2022-07-29T04:20:53;94012.00;;;15.90
10598;BMP180;5346;48.766;8.674;2022-07-29T04:23:22;94007.00;;;15.90
10598;BMP180;5346;48.766;8.674;2022-07-29T04:25:50;94009.00;;;15.90
10598;BMP180;5346;48.766;8.674;2022-07-29T04:28:26;94010.00;;;15.90
10598;BMP180;5346;48.766;8.674;2022-07-29T04:30:53;94011.00;;;16.00
10598;BMP180;5346;48.766;8.674;2022-07-29T04:33:21;94013.00;;;16.00
10598;BMP180;5346;48.766;8.674;2022-07-29T04:35:54;94016.00;;;15.90
10598;BMP180;5346;48.766;8.674;2022-07-29T04:38:29;94019.00;;;15.90
10598;BMP180;5346;48.766;8.674;2022-07-29T04:41:04;94019.00;;;15.90
10598;BMP180;5346;48.766;8.674;2022-07-29T04:43:36;94017.00;;;15.90
10598;BMP180;5346;48.766;8.674;2022-07-29T04:46:05;94014.00;;;16.00
10598;BMP180;5346;48.766;8.674;2022-07-29T04:48:40;94018.00;;;16.00
10598;BMP180;5346;48.766;8.674;2022-07-29T04:51:07;94022.00;;;16.00
10598;BMP180;5346;48.766;8.674;2022-07-29T04:53:35;94014.00;;;16.20
10598;BMP180;5346;48.766;8.674;2022-07-29T04:56:11;94015.00;;;16.30
10598;BMP180;5346;48.766;8.674;2022-07-29T04:58:38;94007.00;;;16.30
10598;BMP180;5346;48.766;8.674;2022-07-29T05:01:06;94018.00;;;16.40
10598;BMP180;5346;48.766;8.674;2022-07-29T05:03:41;94018.00;;;16.50
10598;BMP180;5346;48.766;8.674;2022-07-29T05:06:10;94016.00;;;16.60
10598;BMP180;5346;48.766;8.674;2022-07-29T05:08:37;94012.00;;;16.70
10598;BMP180;5346;48.766;8.674;2022-07-29T05:11:12;94015.00;;;16.90
10598;BMP180;5346;48.766;8.674;2022-07-29T05:13:45;94010.00;;;17.10
10598;BMP180;5346;48.766;8.674;2022-07-29T05:16:34;94015.00;;;17.40
10598;BMP180;5346;48.766;8.674;2022-07-29T05:19:02;94016.00;;;17.60
10598;BMP180;5346;48.766;8.674;2022-07-29T05:21:40;94012.00;;;17.80
10598;BMP180;5346;48.766;8.674;2022-07-29T05:24:08;94028.00;;;18.00
10598;BMP180;5346;48.766;8.674;2022-07-29T05:26:36;94025.00;;;18.00
10598;BMP180;5346;48.766;8.674;2022-07-29T05:29:10;94028.00;;;18.10
10598;BMP180;5346;48.766;8.674;2022-07-29T05:31:58;94030.00;;;18.00
10598;BMP180;5346;48.766;8.674;2022-07-29T05:34:32;94037.00;;;18.00
10598;BMP180;5346;48.766;8.674;2022-07-29T05:36:59;94029.00;;;17.90
10598;BMP180;5346;48.766;8.674;2022-07-29T05:39:27;94043.00;;;17.90
10598;BMP180;5346;48.766;8.674;2022-07-29T05:42:16;94035.00;;;17.80
10598;BMP180;5346;48.766;8.674;2022-07-29T05:44:44;94043.00;;;17.90
10598;BMP180;5346;48.766;8.674;2022-07-29T05:47:18;94043.00;;;18.00
10598;BMP180;5346;48.766;8.674;2022-07-29T05:49:45;94039.00;;;18.10
10598;BMP180;5346;48.766;8.674;2022-07-29T05:52:13;94040.00;;;18.10
10598;BMP180;5346;48.766;8.674;2022-07-29T05:54:48;94038.00;;;18.30
10598;BMP180;5346;48.766;8.674;2022-07-29T05:57:17;94043.00;;;18.40
10598;BMP180;5346;48.766;8.674;2022-07-29T05:59:45;94047.00;;;18.50
10598;BMP180;5346;48.766;8.674;2022-07-29T06:02:20;94043.00;;;18.60
10598;BMP180;5346;48.766;8.674;2022-07-29T06:04:47;94050.00;;;18.50
10598;BMP180;5346;48.766;8.674;2022-07-29T06:07:16;94059.00;;;18.50
10598;BMP180;5346;48.766;8.674;2022-07-29T06:09:50;94051.00;;;18.50
10598;BMP180;5346;48.766;8.674;2022-07-29T06:12:17;94058.00;;;18.50
10598;BMP180;5346;48.766;8.674;2022-07-29T06:14:45;94058.00;;;18.50
10598;BMP180;5346;48.766;8.674;2022-07-29T06:17:27;94058.00;;;18.60
10598;BMP180;5346;48.766;8.674;2022-07-29T06:19:54;94060.00;;;18.70
10598;BMP180;5346;48.766;8.674;2022-07-29T06:22:22;94058.00;;;18.80
10598;BMP180;5346;48.766;8.674;2022-07-29T06:24:56;94053.00;;;19.00
10598;BMP180;5346;48.766;8.674;2022-07-29T06:27:23;94062.00;;;19.40
10598;BMP180;5346;48.766;8.674;2022-07-29T06:29:51;94061.00;;;19.50
10598;BMP180;5346;48.766;8.674;2022-07-29T06:32:25;94057.00;;;19.60
10598;BMP180;5346;48.766;8.674;2022-07-29T06:34:53;94058.00;;;19.90
10598;BMP180;5346;48.766;8.674;2022-07-29T06:37:41;94057.00;;;20.30
10598;BMP180;5346;48.766;8.674;2022-07-29T06:40:21;94056.00;;;20.80
10598;BMP180;5346;48.766;8.674;2022-07-29T06:43:07;94062.00;;;21.10
10598;BMP180;5346;48.766;8.674;2022-07-29T06:45:42;94066.00;;;20.70
10598;BMP180;5346;48.766;8.674;2022-07-29T06:48:10;94073.00;;;20.70
10598;BMP180;5346;48.766;8.674;2022-07-29T06:50:38;94057.00;;;20.60
10598;BMP180;5346;48.766;8.674;2022-07-29T06:53:12;94060.00;;;20.70
10598;BMP180;5346;48.766;8.674;2022-07-29T06:55:40;94065.00;;;20.90
10598;BMP180;5346;48.766;8.674;2022-07-29T06:58:07;94075.00;;;20.80
10598;BMP180;5346;48.766;8.674;2022-07-29T07:00:43;94079.00;;;21.10
10598;BMP180;5346;48.766;8.674;2022-07-29T07:03:12;94075.00;;;20.90
10598;BMP180;5346;48.766;8.674;2022-07-29T07:05:40;94073.00;;;21.20
10598;BMP180;5346;48.766;8.674;2022-07-29T07:08:14;94073.00;;;21.80
10598;BMP180;5346;48.766;8.674;2022-07-29T07:10:43;94078.00;;;22.00
10598;BMP180;5346;48.766;8.674;2022-07-29T07:13:11;94070.00;;;22.10
10598;BMP180;5346;48.766;8.674;2022-07-29T07:15:46;94067.00;;;22.20
10598;BMP180;5346;48.766;8.674;2022-07-29T07:18:16;94080.00;;;22.10
10598;BMP180;5346;48.766;8.674;2022-07-29T07:20:44;94078.00;;;21.70
10598;BMP180;5346;48.766;8.674;2022-07-29T07:23:18;94081.00;;;21.90
10598;BMP180;5346;48.766;8.674;2022-07-29T07:25:45;94069.00;;;22.20
10598;BMP180;5346;48.766;8.674;2022-07-29T07:28:13;94076.00;;;22.60
10598;BMP180;5346;48.766;8.674;2022-07-29T07:30:56;94076.00;;;22.70
10598;BMP180;5346;48.766;8.674;2022-07-29T07:33:24;94078.00;;;22.90
10598;BMP180;5346;48.766;8.674;2022-07-29T07:35:59;94075.00;;;22.90
10598;BMP180;5346;48.766;8.674;2022-07-29T07:38:27;94081.00;;;22.90
10598;BMP180;5346;48.766;8.674;2022-07-29T07:40:55;94088.00;;;22.60
10598;BMP180;5346;48.766;8.674;2022-07-29T07:43:30;94079.00;;;22.70
10598;BMP180;5346;48.766;8.674;2022-07-29T07:45:59;94075.00;;;23.10
10598;BMP180;5346;48.766;8.674;2022-07-29T07:48:27;94073.00;;;23.70
10598;BMP180;5346;48.766;8.674;2022-07-29T07:51:02;94058.00;;;24.10
10598;BMP180;5346;48.766;8.674;2022-07-29T07:53:31;94061.00;;;24.30
10598;BMP180;5346;48.766;8.674;2022-07-29T07:55:59;94077.00;;;24.40
10598;BMP180;5346;48.766;8.674;2022-07-29T07:58:38;94068.00;;;24.30
10598;BMP180;5346;48.766;8.674;2022-07-29T08:01:07;94070.00;;;24.50
10598;BMP180;5346;48.766;8.674;2022-07-29T08:03:42;94069.00;;;24.70
10598;BMP180;5346;48.766;8.674;2022-07-29T08:06:10;94072.00;;;24.80
10598;BMP180;5346;48.766;8.674;2022-07-29T08:08:38;94083.00;;;24.60
10598;BMP180;5346;48.766;8.674;2022-07-29T08:11:12;94077.00;;;24.80
10598;BMP180;5346;48.766;8.674;2022-07-29T08:13:46;94070.00;;;25.10
10598;BMP180;5346;48.766;8.674;2022-07-29T08:16:28;94080.00;;;25.10
10598;BMP180;5346;48.766;8.674;2022-07-29T08:18:56;94088.00;;;25.00
10598;BMP180;5346;48.766;8.674;2022-07-29T08:21:25;94080.00;;;24.90
10598;BMP180;5346;48.766;8.674;2022-07-29T08:23:59;94085.00;;;25.00
10598;BMP180;5346;48.766;8.674;2022-07-29T08:26:45;94086.00;;;25.00
10598;BMP180;5346;48.766;8.674;2022-07-29T08:29:20;94092.00;;;25.20
10598;BMP180;5346;48.766;8.674;2022-07-29T08:31:48;94091.00;;;25.30
10598;BMP180;5346;48.766;8.674;2022-07-29T08:34:16;94097.00;;;25.70
10598;BMP180;5346;48.766;8.674;2022-07-29T08:36:55;94101.00;;;25.40
10598;BMP180;5346;48.766;8.674;2022-07-29T08:39:23;94093.00;;;25.20
10598;BMP180;5346;48.766;8.674;2022-07-29T08:41:58;94095.00;;;25.40
10598;BMP180;5346;48.766;8.674;2022-07-29T08:44:26;94096.00;;;25.60
10598;BMP180;5346;48.766;8.674;2022-07-29T08:46:57;94093.00;;;25.40
10598;BMP180;5346;48.766;8.674;2022-07-29T08:49:34;94090.00;;;25.60
10598;BMP180;5346;48.766;8.674;2022-07-29T08:52:03;94101.00;;;25.80
10598;BMP180;5346;48.766;8.674;2022-07-29T08:54:31;94089.00;;;25.70
10598;BMP180;5346;48.766;8.674;2022-07-29T08:57:06;94095.00;;;25.70
10598;BMP180;5346;48.766;8.674;2022-07-29T08:59:36;94102.00;;;25.80
10598;BMP180;5346;48.766;8.674;2022-07-29T09:02:18;94105.00;;;25.70
10598;BMP180;5346;48.766;8.674;2022-07-29T09:05:00;94102.00;;;25.20
10598;BMP180;5346;48.766;8.674;2022-07-29T09:07:29;94104.00;;;25.50
10598;BMP180;5346;48.766;8.674;2022-07-29T09:10:05;94106.00;;;26.30
10598;BMP180;5346;48.766;8.674;2022-07-29T09:12:33;94100.00;;;26.50
10598;BMP180;5346;48.766;8.674;2022-07-29T09:15:04;94101.00;;;26.00
10598;BMP180;5346;48.766;8.674;2022-07-29T09:17:43;94098.00;;;26.60
10598;BMP180;5346;48.766;8.674;2022-07-29T09:20:16;94097.00;;;26.20
10598;BMP180;5346;48.766;8.674;2022-07-29T09:22:51;94106.00;;;25.90
10598;BMP180;5346;48.766;8.674;2022-07-29T09:25:37;94100.00;;;25.70
10598;BMP180;5346;48.766;8.674;2022-07-29T09:28:16;94095.00;;;26.10
10598;BMP180;5346;48.766;8.674;2022-07-29T09:30:52;94113.00;;;26.30
10598;BMP180;5346;48.766;8.674;2022-07-29T09:33:34;94111.00;;;26.10
10598;BMP180;5346;48.766;8.674;2022-07-29T09:36:08;94115.00;;;25.50
10598;BMP180;5346;48.766;8.674;2022-07-29T09:39:00;94116.00;;;25.00
10598;BMP180;5346;48.766;8.674;2022-07-29T09:41:29;94104.00;;;25.30
10598;BMP180;5346;48.766;8.674;2022-07-29T09:44:03;94111.00;;;25.70
10598;BMP180;5346;48.766;8.674;2022-07-29T09:46:33;94101.00;;;25.40
10598;BMP180;5346;48.766;8.674;2022-07-29T09:49:13;94109.00;;;25.80
10598;BMP180;5346;48.766;8.674;2022-07-29T09:52:00;94105.00;;;25.60
10598;BMP180;5346;48.766;8.674;2022-07-29T09:54:28;94106.00;;;25.20
10598;BMP180;5346;48.766;8.674;2022-07-29T09:57:09;94105.00;;;25.00
10598;BMP180;5346;48.766;8.674;2022-07-29T10:00:01;94117.00;;;25.10
10598;BMP180;5346;48.766;8.674;2022-07-29T10:02:38;94114.00;;;25.00
10598;BMP180;5346;48.766;8.674;2022-07-29T10:05:20;94112.00;;;25.20
10598;BMP180;5346;48.766;8.674;2022-07-29T10:08:04;94106.00;;;25.20
10598;BMP180;5346;48.766;8.674;2022-07-29T10:10:34;94114.00;;;25.30
10598;BMP180;5346;48.766;8.674;2022-07-29T10:13:11;94108.00;;;25.20
10598;BMP180;5346;48.766;8.674;2022-07-29T10:15:53;94085.00;;;25.60
10598;BMP180;5346;48.766;8.674;2022-07-29T10:18:27;94085.00;;;26.70
10598;BMP180;5346;48.766;8.674;2022-07-29T10:20:56;94092.00;;;27.20
10598;BMP180;5346;48.766;8.674;2022-07-29T10:23:24;94096.00;;;27.10
10598;BMP180;5346;48.766;8.674;2022-07-29T10:26:13;94083.00;;;26.50
10598;BMP180;5346;48.766;8.674;2022-07-29T10:28:43;94098.00;;;25.70
10598;BMP180;5346;48.766;8.674;2022-07-29T10:31:29;94110.00;;;25.50
10598;BMP180;5346;48.766;8.674;2022-07-29T10:34:14;94109.00;;;25.40
10598;BMP180;5346;48.766;8.674;2022-07-29T10:37:20;94117.00;;;25.10
10598;BMP180;5346;48.766;8.674;2022-07-29T10:43:28;94104.00;;;24.50
10598;BMP180;5346;48.766;8.674;2022-07-29T10:45:59;94104.00;;;24.60
10598;BMP180;5346;48.766;8.674;2022-07-29T10:48:35;94099.00;;;24.70
10598;BMP180;5346;48.766;8.674;2022-07-29T10:51:05;94101.00;;;24.90
10598;BMP180;5346;48.766;8.674;2022-07-29T10:53:49;94108.00;;;24.90
10598;BMP180;5346;48.766;8.674;2022-07-29T10:56:32;94118.00;;;24.70
10598;BMP180;5346;48.766;8.674;2022-07-29T11:01:53;94125.00;;;24.50
10598;BMP180;5346;48.766;8.674;2022-07-29T11:07:19;94125.00;;;24.00
10598;BMP180;5346;48.766;8.674;2022-07-29T11:15:20;94122.00;;;23.80
10598;BMP180;5346;48.766;8.674;2022-07-29T11:20:48;94130.00;;;23.60
10598;BMP180;5346;48.766;8.674;2022-07-29T11:40:07;94113.00;;;25.30
10598;BMP180;5346;48.766;8.674;2022-07-29T11:42:45;94113.00;;;25.10
10598;BMP180;5346;48.766;8.674;2022-07-29T11:45:25;94114.00;;;24.90
10598;BMP180;5346;48.766;8.674;2022-07-29T11:48:20;94113.00;;;24.60
10598;BMP180;5346;48.766;8.674;2022-07-29T11:50:58;94118.00;;;24.60
10598;BMP180;5346;48.766;8.674;2022-07-29T11:53:34;94126.00;;;24.50
10598;BMP180;5346;48.766;8.674;2022-07-29T11:56:04;94120.00;;;24.40
10598;BMP180;5346;48.766;8.674;2022-07-29T11:58:43;94128.00;;;24.10
10598;BMP180;5346;48.766;8.674;2022-07-29T12:01:17;94131.00;;;23.70
10598;BMP180;5346;48.766;8.674;2022-07-29T12:04:03;94140.00;;;23.60
10598;BMP180;5346;48.766;8.674;2022-07-29T12:06:52;94140.00;;;23.30
10598;BMP180;5346;48.766;8.674;2022-07-29T12:09:31;94141.00;;;23.20
10598;BMP180;5346;48.766;8.674;2022-07-29T12:12:08;94143.00;;;23.10
10598;BMP180;5346;48.766;8.674;2022-07-29T12:14:49;94141.00;;;22.90
10598;BMP180;5346;48.766;8.674;2022-07-29T12:20:05;94147.00;;;22.50
10598;BMP180;5346;48.766;8.674;2022-07-29T12:22:40;94145.00;;;22.50
10598;BMP180;5346;48.766;8.674;2022-07-29T12:25:15;94148.00;;;22.60
10598;BMP180;5346;48.766;8.674;2022-07-29T12:28:02;94145.00;;;22.80
10598;BMP180;5346;48.766;8.674;2022-07-29T12:30:46;94140.00;;;22.80
10598;BMP180;5346;48.766;8.674;2022-07-29T12:33:26;94139.00;;;22.80
10598;BMP180;5346;48.766;8.674;2022-07-29T12:36:03;94126.00;;;22.90
10598;BMP180;5346;48.766;8.674;2022-07-29T12:38:35;94124.00;;;23.30
10598;BMP180;5346;48.766;8.674;2022-07-29T12:41:03;94130.00;;;23.60
10598;BMP180;5346;48.766;8.674;2022-07-29T12:43:54;94125.00;;;23.90
10598;BMP180;5346;48.766;8.674;2022-07-29T12:46:22;94133.00;;;24.10
10598;BMP180;5346;48.766;8.674;2022-07-29T12:48:57;94133.00;;;24.30
10598;BMP180;5346;48.766;8.674;2022-07-29T12:51:37;94129.00;;;24.20
10598;BMP180;5346;48.766;8.674;2022-07-29T12:54:15;94130.00;;;24.10
10598;BMP180;5346;48.766;8.674;2022-07-29T12:56:44;94137.00;;;24.10
10598;BMP180;5346;48.766;8.674;2022-07-29T12:59:21;94145.00;;;24.00
10598;BMP180;5346;48.766;8.674;2022-07-29T13:01:51;94133.00;;;24.00
10598;BMP180;5346;48.766;8.674;2022-07-29T13:04:32;94146.00;;;23.90
10598;BMP180;5346;48.766;8.674;2022-07-29T13:07:07;94147.00;;;23.90
10598;BMP180;5346;48.766;8.674;2022-07-29T13:09:38;94139.00;;;23.90
10598;BMP180;5346;48.766;8.674;2022-07-29T13:12:14;94143.00;;;23.90
10598;BMP180;5346;48.766;8.674;2022-07-29T13:14:54;94141.00;;;24.00
10598;BMP180;5346;48.766;8.674;2022-07-29T13:17:40;94135.00;;;24.30
10598;BMP180;5346;48.766;8.674;2022-07-29T13:20:15;94138.00;;;24.60
10598;BMP180;5346;48.766;8.674;2022-07-29T13:22:50;94129.00;;;24.80
10598;BMP180;5346;48.766;8.674;2022-07-29T13:25:44;94134.00;;;25.00
10598;BMP180;5346;48.766;8.674;2022-07-29T13:28:18;94133.00;;;24.70
10598;BMP180;5346;48.766;8.674;2022-07-29T13:30:46;94132.00;;;24.70
10598;BMP180;5346;48.766;8.674;2022-07-29T13:33:14;94127.00;;;24.90
10598;BMP180;5346;48.766;8.674;2022-07-29T13:35:49;94126.00;;;25.20
10598;BMP180;5346;48.766;8.674;2022-07-29T13:38:17;94133.00;;;25.30
10598;BMP180;5346;48.766;8.674;2022-07-29T13:40:45;94129.00;;;25.50
10598;BMP180;5346;48.766;8.674;2022-07-29T13:43:19;94133.00;;;25.60
10598;BMP180;5346;48.766;8.674;2022-07-29T13:45:48;94132.00;;;25.40
10598;BMP180;5346;48.766;8.674;2022-07-29T13:48:16;94131.00;;;25.10
10598;BMP180;5346;48.766;8.674;2022-07-29T13:50:50;94125.00;;;25.10
10598;BMP180;5346;48.766;8.674;2022-07-29T13:53:18;94114.00;;;24.90
10598;BMP180;5346;48.766;8.674;2022-07-29T13:55:53;94114.00;;;25.10
10598;BMP180;5346;48.766;8.674;2022-07-29T13:58:27;94121.00;;;25.10
10598;BMP180;5346;48.766;8.674;2022-07-29T14:00:56;94116.00;;;25.20
10598;BMP180;5346;48.766;8.674;2022-07-29T14:03:24;94105.00;;;25.30
10598;BMP180;5346;48.766;8.674;2022-07-29T14:05:58;94110.00;;;25.50
10598;BMP180;5346;48.766;8.674;2022-07-29T14:08:27;94109.00;;;25.80
10598;BMP180;5346;48.766;8.674;2022-07-29T14:10:57;94112.00;;;25.90
10598;BMP180;5346;48.766;8.674;2022-07-29T14:13:37;94103.00;;;25.80
10598;BMP180;5346;48.766;8.674;2022-07-29T14:16:19;94103.00;;;25.70
10598;BMP180;5346;48.766;8.674;2022-07-29T14:18:53;94107.00;;;25.60
10598;BMP180;5346;48.766;8.674;2022-07-29T14:21:21;94111.00;;;25.40
10598;BMP180;5346;48.766;8.674;2022-07-29T14:23:52;94110.00;;;25.30
10598;BMP180;5346;48.766;8.674;2022-07-29T14:26:40;94107.00;;;25.50
10598;BMP180;5346;48.766;8.674;2022-07-29T14:29:12;94106.00;;;25.80
10598;BMP180;5346;48.766;8.674;2022-07-29T14:31:46;94108.00;;;25.70
10598;BMP180;5346;48.766;8.674;2022-07-29T14:34:14;94116.00;;;25.70
10598;BMP180;5346;48.766;8.674;2022-07-29T14:36:42;94121.00;;;25.60
10598;BMP180;5346;48.766;8.674;2022-07-29T14:39:17;94109.00;;;25.60
10598;BMP180;5346;48.766;8.674;2022-07-29T14:41:44;94118.00;;;25.40
10598;BMP180;5346;48.766;8.674;2022-07-29T14:44:12;94120.00;;;25.40
10598;BMP180;5346;48.766;8.674;2022-07-29T14:46:46;94122.00;;;25.40
10598;BMP180;5346;48.766;8.674;2022-07-29T14:49:15;94123.00;;;25.30
10598;BMP180;5346;48.766;8.674;2022-07-29T14:51:43;94119.00;;;25.00
10598;BMP180;5346;48.766;8.674;2022-07-29T14:54:18;94124.00;;;25.20
10598;BMP180;5346;48.766;8.674;2022-07-29T14:56:46;94126.00;;;24.90
10598;BMP180;5346;48.766;8.674;2022-07-29T14:59:16;94126.00;;;24.70
10598;BMP180;5346;48.766;8.674;2022-07-29T15:01:51;94125.00;;;24.90
10598;BMP180;5346;48.766;8.674;2022-07-29T15:04:18;94123.00;;;24.80
10598;BMP180;5346;48.766;8.674;2022-07-29T15:06:46;94125.00;;;24.90
10598;BMP180;5346;48.766;8.674;2022-07-29T15:09:22;94137.00;;;25.00
10598;BMP180;5346;48.766;8.674;2022-07-29T15:11:50;94132.00;;;24.70
10598;BMP180;5346;48.766;8.674;2022-07-29T15:14:18;94126.00;;;24.90
10598;BMP180;5346;48.766;8.674;2022-07-29T15:16:52;94136.00;;;24.90
10598;BMP180;5346;48.766;8.674;2022-07-29T15:19:20;94134.00;;;25.10
10598;BMP180;5346;48.766;8.674;2022-07-29T15:21:47;94125.00;;;25.00
10598;BMP180;5346;48.766;8.674;2022-07-29T15:24:26;94121.00;;;24.90
10598;BMP180;5346;48.766;8.674;2022-07-29T15:26:56;94127.00;;;25.00
10598;BMP180;5346;48.766;8.674;2022-07-29T15:29:38;94127.00;;;24.90
10598;BMP180;5346;48.766;8.674;2022-07-29T15:32:06;94120.00;;;24.90
10598;BMP180;5346;48.766;8.674;2022-07-29T15:34:49;94133.00;;;25.30
10598;BMP180;5346;48.766;8.674;2022-07-29T15:37:17;94137.00;;;25.20
10598;BMP180;5346;48.766;8.674;2022-07-29T15:40:14;94140.00;;;24.80
10598;BMP180;5346;48.766;8.674;2022-07-29T15:42:41;94153.00;;;24.70
10598;BMP180;5346;48.766;8.674;2022-07-29T15:45:16;94147.00;;;24.50
10598;BMP180;5346;48.766;8.674;2022-07-29T15:47:44;94152.00;;;24.40
10598;BMP180;5346;48.766;8.674;2022-07-29T15:50:11;94152.00;;;24.60
10598;BMP180;5346;48.766;8.674;2022-07-29T15:52:49;94158.00;;;24.40